createdAt,value
2022-12-15T00:00:02.531Z,4.87
2022-12-15T00:02:50.042Z,4.70
2022-12-15T00:05:35.725Z,4.87
2022-12-15T00:08:28.869Z,5.40
2022-12-15T00:11:15.312Z,5.57
2022-12-15T00:14:00.683Z,5.97
2022-12-15T00:16:47.045Z,5.60
2022-12-15T00:19:32.360Z,4.87
2022-12-15T00:22:17.683Z,5.77
2022-12-15T00:25:03.129Z,5.23
2022-12-15T00:27:48.388Z,5.17
2022-12-15T00:30:34.178Z,6.03
2022-12-15T00:33:26.893Z,5.87
2022-12-15T00:36:12.309Z,6.70
2022-12-15T00:38:46.046Z,5.90
2022-12-15T00:41:15.398Z,5.50
2022-12-15T00:43:43.934Z,5.63
2022-12-15T00:46:29.877Z,6.50
2022-12-15T00:48:59.582Z,5.93
2022-12-15T00:51:44.956Z,5.70
2022-12-15T00:54:31.008Z,6.50
2022-12-15T00:57:16.362Z,6.03
2022-12-15T01:00:01.757Z,6.33
2022-12-15T01:02:47.342Z,5.63
2022-12-15T01:05:34.406Z,5.73
2022-12-15T01:08:19.878Z,5.60
2022-12-15T01:11:05.296Z,5.90
2022-12-15T01:13:50.668Z,5.40
2022-12-15T01:16:35.938Z,5.87
2022-12-15T01:19:21.059Z,6.17
2022-12-15T01:21:50.853Z,6.23
2022-12-15T01:24:18.723Z,5.73
2022-12-15T01:26:46.679Z,5.97
2022-12-15T01:29:14.681Z,5.97
2022-12-15T01:31:44.075Z,5.43
2022-12-15T01:34:12.241Z,5.97
2022-12-15T01:36:40.135Z,5.90
2022-12-15T01:39:09.390Z,6.37
2022-12-15T01:41:36.299Z,6.07
2022-12-15T01:44:21.727Z,6.57
2022-12-15T01:46:51.467Z,5.90
2022-12-15T01:49:23.463Z,6.33
2022-12-15T01:51:55.871Z,6.43
2022-12-15T01:54:30.084Z,5.50
2022-12-15T01:57:03.498Z,5.33
2022-12-15T01:59:35.538Z,4.87
2022-12-15T02:02:04.210Z,4.47
2022-12-15T02:04:33.242Z,4.17
2022-12-15T02:07:01.242Z,4.63
2022-12-15T02:09:31.422Z,4.33
2022-12-15T02:12:03.391Z,4.87
2022-12-15T02:14:48.288Z,4.20
2022-12-15T02:17:29.495Z,4.20
2022-12-15T02:20:19.507Z,3.93
2022-12-15T02:23:04.886Z,3.67
2022-12-15T02:26:01.367Z,3.40
2022-12-15T02:28:39.166Z,3.80
2022-12-15T02:31:29.553Z,3.97
2022-12-15T02:34:06.184Z,4.33
2022-12-15T02:36:38.309Z,4.13
2022-12-15T02:39:07.053Z,4.07
2022-12-15T02:41:40.261Z,4.77
2022-12-15T02:44:13.298Z,5.10
2022-12-15T02:47:00.762Z,4.37
2022-12-15T02:49:39.643Z,4.20
2022-12-15T02:52:23.947Z,4.07
2022-12-15T02:55:03.618Z,4.20
2022-12-15T02:57:43.353Z,4.27
2022-12-15T03:00:13.845Z,4.07
2022-12-15T03:02:47.596Z,4.13
2022-12-15T03:05:17.208Z,4.40
2022-12-15T03:07:45.153Z,3.67
2022-12-15T03:10:19.040Z,3.90
2022-12-15T03:12:47.407Z,3.50
2022-12-15T03:15:15.575Z,3.80
2022-12-15T03:17:44.906Z,3.53
2022-12-15T03:20:13.193Z,3.37
2022-12-15T03:22:41.909Z,3.13
2022-12-15T03:25:10.281Z,3.40
2022-12-15T03:27:38.720Z,3.60
2022-12-15T03:30:08.118Z,3.37
2022-12-15T03:32:36.018Z,3.33
2022-12-15T03:35:05.907Z,3.40
2022-12-15T03:37:33.945Z,2.90
2022-12-15T03:40:01.858Z,3.63
2022-12-15T03:42:47.028Z,3.10
2022-12-15T03:45:14.983Z,3.23
2022-12-15T03:47:43.239Z,3.30
2022-12-15T03:50:14.743Z,3.27
2022-12-15T03:52:42.718Z,3.40
2022-12-15T03:55:12.600Z,3.20
2022-12-15T03:57:40.601Z,3.20
2022-12-15T04:00:09.542Z,3.63
2022-12-15T04:02:37.589Z,3.50
2022-12-15T04:05:06.091Z,3.73
2022-12-15T04:07:35.526Z,4.43
2022-12-15T04:10:03.428Z,4.30
2022-12-15T04:12:31.324Z,4.07
2022-12-15T04:14:59.177Z,4.20
2022-12-15T04:17:27.082Z,4.57
2022-12-15T04:20:13.050Z,4.20
2022-12-15T04:22:44.906Z,4.33
2022-12-15T04:25:33.241Z,4.87
2022-12-15T04:28:18.622Z,4.13
2022-12-15T04:31:06.682Z,4.37
2022-12-15T04:33:52.578Z,4.13
2022-12-15T04:36:37.946Z,4.10
2022-12-15T04:39:24.927Z,4.13
2022-12-15T04:42:11.229Z,4.70
2022-12-15T04:44:56.922Z,4.43
2022-12-15T04:47:42.243Z,4.10
2022-12-15T04:50:27.585Z,4.17
2022-12-15T04:53:12.998Z,3.60
2022-12-15T04:55:59.624Z,4.13
2022-12-15T04:58:45.511Z,3.50
2022-12-15T05:01:30.860Z,4.03
2022-12-15T05:04:16.101Z,3.60
2022-12-15T05:07:01.191Z,3.23
2022-12-15T05:09:46.183Z,3.47
2022-12-15T05:12:32.806Z,3.07
2022-12-15T05:15:18.139Z,3.60
2022-12-15T05:18:03.407Z,3.40
2022-12-15T05:20:50.120Z,3.27
2022-12-15T05:23:35.900Z,3.50
2022-12-15T05:26:25.274Z,3.20
2022-12-15T05:29:12.609Z,3.37
2022-12-15T05:31:54.712Z,3.73
2022-12-15T05:34:23.510Z,3.10
2022-12-15T05:36:51.869Z,3.60
2022-12-15T05:39:21.267Z,3.37
2022-12-15T05:41:49.418Z,4.70
2022-12-15T05:44:19.522Z,4.30
2022-12-15T05:46:48.579Z,4.23
2022-12-15T05:49:18.042Z,3.60
2022-12-15T05:51:47.853Z,3.30
2022-12-15T05:54:18.402Z,3.07
2022-12-15T05:56:46.930Z,4.30
2022-12-15T05:59:20.166Z,4.63
2022-12-15T06:01:48.454Z,5.43
2022-12-15T06:04:16.636Z,5.30
2022-12-15T06:06:44.828Z,6.13
2022-12-15T06:09:13.090Z,5.83
2022-12-15T06:11:41.113Z,6.30
2022-12-15T06:14:10.001Z,6.13
2022-12-15T06:16:50.369Z,6.37
2022-12-15T06:19:19.991Z,6.57
2022-12-15T06:21:49.794Z,5.47
2022-12-15T06:24:18.098Z,5.73
2022-12-15T06:26:49.742Z,4.93
2022-12-15T06:29:18.467Z,5.67
2022-12-15T06:31:48.043Z,5.23
2022-12-15T06:34:17.791Z,4.83
2022-12-15T06:36:46.113Z,6.83
2022-12-15T06:39:16.623Z,5.00
2022-12-15T06:41:45.430Z,5.20
2022-12-15T06:44:15.731Z,5.00
2022-12-15T06:46:45.816Z,5.57
2022-12-15T06:49:15.902Z,5.20
2022-12-15T06:51:45.374Z,5.07
2022-12-15T06:54:14.073Z,4.70
2022-12-15T06:56:42.708Z,5.67
2022-12-15T06:59:12.247Z,5.13
2022-12-15T07:01:41.940Z,5.03
2022-12-15T07:04:11.412Z,4.97
2022-12-15T07:06:42.565Z,5.47
2022-12-15T07:09:16.653Z,5.07
2022-12-15T07:11:45.288Z,5.10
2022-12-15T07:14:13.330Z,4.73
2022-12-15T07:16:41.976Z,4.97
2022-12-15T07:19:13.769Z,5.07
2022-12-15T07:21:43.966Z,5.13
2022-12-15T07:24:13.246Z,4.10
2022-12-15T07:26:41.438Z,4.77
2022-12-15T07:29:09.696Z,4.40
2022-12-15T07:31:37.834Z,4.70
2022-12-15T07:34:05.960Z,4.57
2022-12-15T07:36:33.958Z,4.63
2022-12-15T07:39:04.907Z,5.00
2022-12-15T07:41:33.642Z,4.43
2022-12-15T07:44:02.425Z,4.20
2022-12-15T07:46:30.664Z,4.83
2022-12-15T07:48:58.878Z,5.03
2022-12-15T07:51:28.013Z,4.43
2022-12-15T07:53:56.102Z,4.53
2022-12-15T07:56:25.716Z,4.90
2022-12-15T07:58:54.329Z,4.47
2022-12-15T08:01:24.866Z,4.40
2022-12-15T08:03:53.142Z,4.47
2022-12-15T08:06:21.508Z,5.60
2022-12-15T08:08:51.241Z,4.93
2022-12-15T08:11:22.608Z,5.83
2022-12-15T08:14:03.014Z,6.97
2022-12-15T08:16:32.080Z,6.70
2022-12-15T08:19:00.224Z,6.50
2022-12-15T08:21:28.252Z,5.20
2022-12-15T08:23:56.568Z,5.13
2022-12-15T08:26:29.967Z,6.33
2022-12-15T08:31:42.940Z,6.27
2022-12-15T08:34:12.279Z,6.60
2022-12-15T08:39:27.674Z,6.03
2022-12-15T08:41:56.954Z,7.43
2022-12-15T08:44:24.939Z,8.20
2022-12-15T08:46:54.200Z,7.10
2022-12-15T08:49:22.633Z,7.90
2022-12-15T08:51:51.554Z,7.40
2022-12-15T08:54:20.722Z,6.10
2022-12-15T08:56:48.849Z,6.07
2022-12-15T08:59:16.909Z,6.03
2022-12-15T09:01:45.182Z,6.17
2022-12-15T09:04:15.747Z,6.00
2022-12-15T09:06:44.271Z,5.47
2022-12-15T09:09:16.609Z,6.10
2022-12-15T09:11:44.639Z,7.27
2022-12-15T09:14:12.662Z,6.70
2022-12-15T09:16:40.740Z,6.37
2022-12-15T09:19:09.047Z,6.40
2022-12-15T09:21:39.804Z,6.10
2022-12-15T09:24:08.039Z,6.50
2022-12-15T09:26:36.239Z,6.23
2022-12-15T09:29:04.546Z,6.03
2022-12-15T09:31:34.498Z,6.90
2022-12-15T09:34:02.930Z,7.33
2022-12-15T09:36:32.864Z,6.37
2022-12-15T09:39:03.670Z,8.13
2022-12-15T09:41:34.333Z,7.00
2022-12-15T09:44:05.499Z,7.57
2022-12-15T09:46:50.147Z,7.80
2022-12-15T09:49:32.067Z,7.83
2022-12-15T09:52:10.687Z,8.77
2022-12-15T09:54:42.564Z,9.47
2022-12-15T09:57:21.076Z,11.60
2022-12-15T10:00:07.308Z,11.63
2022-12-15T10:03:14.532Z,13.10
2022-12-15T10:06:14.756Z,14.10
2022-12-15T10:08:41.641Z,13.67
2022-12-15T10:11:27.922Z,14.20
2022-12-15T10:14:01.070Z,13.87
2022-12-15T10:16:34.219Z,13.60
2022-12-15T10:19:10.516Z,14.50
2022-12-15T10:21:38.844Z,13.37
2022-12-15T10:24:31.404Z,12.43
2022-12-15T10:27:31.545Z,13.60
2022-12-15T10:30:02.624Z,12.13
2022-12-15T10:32:43.873Z,11.90
2022-12-15T10:35:17.703Z,11.20
2022-12-15T10:37:45.825Z,10.63
2022-12-15T10:40:20.579Z,11.57
2022-12-15T10:42:51.804Z,10.67
2022-12-15T10:45:36.000Z,10.10
2022-12-15T10:48:04.124Z,10.00
2022-12-15T10:50:32.077Z,10.20
2022-12-15T10:53:00.681Z,9.63
2022-12-15T10:55:39.711Z,10.27
2022-12-15T10:58:19.464Z,10.27
2022-12-15T11:00:50.948Z,10.27
2022-12-15T11:03:25.154Z,9.73
2022-12-15T11:05:54.939Z,10.57
2022-12-15T11:08:23.899Z,10.27
2022-12-15T11:11:11.373Z,9.40
2022-12-15T11:13:42.406Z,9.83
2022-12-15T11:16:17.674Z,10.20
2022-12-15T11:18:51.010Z,9.30
2022-12-15T11:21:23.724Z,9.70
2022-12-15T11:24:07.092Z,9.20
2022-12-15T11:26:50.247Z,9.10
2022-12-15T11:29:50.121Z,9.77
2022-12-15T11:32:23.281Z,10.20
2022-12-15T11:34:51.412Z,9.33
2022-12-15T11:37:41.439Z,9.30
2022-12-15T11:40:24.925Z,9.27
2022-12-15T11:43:06.780Z,9.13
2022-12-15T11:45:48.139Z,9.40
2022-12-15T11:48:18.931Z,10.20
2022-12-15T11:50:54.697Z,9.87
2022-12-15T11:53:58.455Z,9.07
2022-12-15T11:56:33.667Z,8.93
2022-12-15T11:59:23.120Z,9.93
2022-12-15T12:02:13.598Z,9.60
2022-12-15T12:04:53.465Z,10.10
2022-12-15T12:07:30.845Z,9.43
2022-12-15T12:10:10.773Z,9.68
2022-12-15T12:12:47.476Z,10.60
2022-12-15T12:15:28.810Z,9.45
2022-12-15T12:18:07.405Z,9.57
2022-12-15T12:20:45.112Z,9.65
2022-12-15T12:23:21.050Z,9.68
2022-12-15T12:26:03.020Z,9.38
2022-12-15T12:28:41.579Z,10.15
2022-12-15T12:31:20.773Z,9.80
2022-12-15T12:33:56.923Z,10.13
2022-12-15T12:36:25.156Z,10.10
2022-12-15T12:41:48.521Z,10.52
2022-12-15T12:44:30.991Z,9.77
2022-12-15T12:47:06.411Z,9.55
2022-12-15T12:49:40.715Z,9.90
2022-12-15T12:52:21.503Z,10.32
2022-12-15T12:54:58.268Z,9.98
2022-12-15T12:57:39.727Z,9.88
2022-12-15T13:00:25.919Z,10.35
2022-12-15T13:03:19.846Z,9.65
2022-12-15T13:05:55.373Z,10.13
2022-12-15T13:09:10.582Z,9.70
2022-12-15T13:39:05.908Z,9.70
2022-12-15T13:42:07.867Z,9.23
2022-12-15T13:44:55.502Z,9.97
2022-12-15T13:50:34.906Z,11.27
2022-12-15T13:53:20.072Z,10.87
2022-12-15T14:09:43.418Z,11.37
2022-12-15T14:12:39.300Z,13.63
2022-12-15T14:15:27.537Z,13.67
2022-12-15T14:17:57.748Z,13.23
2022-12-15T14:20:31.002Z,13.10
2022-12-15T14:25:57.402Z,14.60
2022-12-15T14:28:27.720Z,14.90
2022-12-15T14:30:59.579Z,13.97
2022-12-15T14:33:34.209Z,18.23
2022-12-15T14:36:07.264Z,11.63
2022-12-15T14:38:46.919Z,12.47
2022-12-15T14:41:24.046Z,11.73
2022-12-15T14:44:37.396Z,11.53
2022-12-15T14:46:47.763Z,11.53
2022-12-15T14:49:25.699Z,11.27
2022-12-15T14:55:00.855Z,12.50
2022-12-15T14:57:46.700Z,10.30
2022-12-15T15:00:29.325Z,15.20
2022-12-15T15:05:57.941Z,13.33
2022-12-15T15:08:40.179Z,13.77
2022-12-15T15:11:25.279Z,15.00
2022-12-15T15:13:59.586Z,14.63
2022-12-15T15:16:31.961Z,16.80
2022-12-15T15:19:04.551Z,15.00
2022-12-15T15:21:38.836Z,15.77
2022-12-15T15:24:25.724Z,15.23
2022-12-15T15:26:55.776Z,16.70
2022-12-15T15:32:54.024Z,15.20
2022-12-15T15:35:37.516Z,17.97
2022-12-15T15:38:16.688Z,18.47
2022-12-15T15:40:57.313Z,17.90
2022-12-15T15:43:29.459Z,18.70
2022-12-15T15:46:08.117Z,16.50
2022-12-15T15:48:40.949Z,17.40
2022-12-15T15:51:13.531Z,17.47
2022-12-15T15:53:42.821Z,17.67
2022-12-15T15:56:28.273Z,16.43
2022-12-15T15:58:57.542Z,17.33
2022-12-15T16:02:12.908Z,15.73
2022-12-15T16:10:24.587Z,15.00
2022-12-15T16:13:10.985Z,16.33
2022-12-15T16:21:35.651Z,14.63
2022-12-15T16:24:10.233Z,14.13
2022-12-15T16:26:39.432Z,14.10
2022-12-15T16:29:18.886Z,14.70
2022-12-15T16:31:47.346Z,13.70
2022-12-15T16:34:17.769Z,13.87
2022-12-15T16:37:26.496Z,14.03
2022-12-15T16:39:56.839Z,13.30
2022-12-15T16:42:25.150Z,12.87
2022-12-15T16:44:55.534Z,11.50
2022-12-15T16:47:34.122Z,12.57
2022-12-15T16:50:03.650Z,11.50
2022-12-15T16:52:34.870Z,11.77
2022-12-15T16:55:17.050Z,11.90
2022-12-15T16:57:45.442Z,10.73
2022-12-15T17:00:20.603Z,11.23
2022-12-15T17:02:53.257Z,11.47
2022-12-15T17:05:23.164Z,10.30
2022-12-15T17:07:56.386Z,11.10
2022-12-15T17:10:30.623Z,11.37
2022-12-15T17:13:06.357Z,12.20
2022-12-15T17:15:37.118Z,12.47
2022-12-15T17:18:08.028Z,13.10
2022-12-15T17:20:36.632Z,12.97
2022-12-15T17:23:13.426Z,14.83
2022-12-15T17:28:33.036Z,13.67
2022-12-15T17:31:10.668Z,12.97
2022-12-15T17:33:41.573Z,13.37
2022-12-15T17:36:32.256Z,13.10
2022-12-15T17:39:37.072Z,16.40
2022-12-15T17:45:15.968Z,16.07
2022-12-15T17:47:44.385Z,14.40
2022-12-15T17:56:40.870Z,14.93
2022-12-15T17:59:14.741Z,14.17
2022-12-15T18:01:57.546Z,21.47
2022-12-15T18:04:40.397Z,14.93
2022-12-15T18:07:18.947Z,15.37
2022-12-15T18:13:11.264Z,15.43
2022-12-15T18:15:41.794Z,14.97
2022-12-15T18:18:11.513Z,14.93
2022-12-15T18:20:39.795Z,14.50
2022-12-15T18:23:15.102Z,14.50
2022-12-15T18:25:45.585Z,17.10
2022-12-15T18:28:31.145Z,16.50
2022-12-15T18:31:05.851Z,19.43
2022-12-15T18:33:35.030Z,19.30
2022-12-15T18:36:03.476Z,28.10
2022-12-15T18:38:38.146Z,20.57
2022-12-15T18:41:07.083Z,19.73
2022-12-15T18:43:36.805Z,21.40
2022-12-15T18:46:05.729Z,19.93
2022-12-15T18:48:35.701Z,23.50
2022-12-15T18:51:14.015Z,20.60
2022-12-15T18:53:42.341Z,21.10
2022-12-15T18:56:14.534Z,20.43
2022-12-15T18:58:45.530Z,22.20
2022-12-15T19:01:15.811Z,20.90
2022-12-15T19:03:43.851Z,21.60
2022-12-15T19:06:25.642Z,21.37
2022-12-15T19:08:54.401Z,21.10
2022-12-15T19:11:31.156Z,22.13
2022-12-15T19:14:01.466Z,22.10
2022-12-15T19:16:50.819Z,19.43
2022-12-15T19:19:36.496Z,21.87
2022-12-15T19:22:30.682Z,19.60
2022-12-15T19:24:59.643Z,20.97
2022-12-15T19:27:28.857Z,28.37
2022-12-15T19:29:58.490Z,23.70
2022-12-15T19:32:26.894Z,31.13
2022-12-15T19:34:54.952Z,35.83
2022-12-15T19:37:27.776Z,34.20
2022-12-15T19:39:56.973Z,38.27
2022-12-15T19:42:29.996Z,36.33
2022-12-15T19:44:59.900Z,35.20
2022-12-15T19:47:28.021Z,33.93
2022-12-15T19:49:56.288Z,36.03
2022-12-15T19:52:24.852Z,32.37
2022-12-15T19:54:53.147Z,29.93
2022-12-15T19:57:21.873Z,27.90
2022-12-15T19:59:53.431Z,28.60
2022-12-15T20:02:25.075Z,27.27
2022-12-15T20:04:53.177Z,26.90
2022-12-15T20:07:28.074Z,30.63
2022-12-15T20:09:58.240Z,29.17
2022-12-15T20:12:27.407Z,29.90
2022-12-15T20:14:55.438Z,29.83
2022-12-15T20:17:26.721Z,29.70
2022-12-15T20:20:03.004Z,30.47
2022-12-15T20:22:31.277Z,31.43
2022-12-15T20:24:59.954Z,29.97
2022-12-15T20:27:28.073Z,30.30
2022-12-15T20:29:56.185Z,29.97
2022-12-15T20:32:25.971Z,29.93
2022-12-15T20:34:55.607Z,29.97
2022-12-15T20:37:28.219Z,31.07
2022-12-15T20:39:57.829Z,30.50
2022-12-15T20:42:26.689Z,30.73
2022-12-15T20:44:55.079Z,29.83
2022-12-15T20:47:30.936Z,30.20
2022-12-15T20:49:59.025Z,29.70
2022-12-15T20:52:29.495Z,28.93
2022-12-15T20:54:57.911Z,31.73
2022-12-15T20:57:25.934Z,31.73
2022-12-15T20:59:54.353Z,28.23
2022-12-15T21:02:25.083Z,26.53
2022-12-15T21:04:56.138Z,28.07
2022-12-15T21:07:24.292Z,26.70
2022-12-15T21:09:52.447Z,27.67
2022-12-15T21:12:22.315Z,25.40
2022-12-15T21:14:51.158Z,26.57
2022-12-15T21:17:21.353Z,23.63
2022-12-15T21:19:50.286Z,25.20
2022-12-15T21:22:22.165Z,23.77
2022-12-15T21:24:52.598Z,24.43
2022-12-15T21:27:21.628Z,25.17
2022-12-15T21:29:52.879Z,29.53
2022-12-15T21:32:21.507Z,24.60
2022-12-15T21:34:49.871Z,25.87
2022-12-15T21:37:26.796Z,25.00
2022-12-15T21:39:55.683Z,25.17
2022-12-15T21:42:24.188Z,25.60
2022-12-15T21:44:52.413Z,25.23
2022-12-15T21:47:48.279Z,24.47
2022-12-15T21:50:16.112Z,24.23
2022-12-15T21:52:46.357Z,23.60
2022-12-15T21:55:16.706Z,23.80
2022-12-15T21:57:45.187Z,24.07
2022-12-15T22:00:15.750Z,23.60
2022-12-15T22:02:44.285Z,26.20
2022-12-15T22:05:17.662Z,25.50
2022-12-15T22:07:47.817Z,24.33
2022-12-15T22:10:16.466Z,24.90
2022-12-15T22:12:57.494Z,25.80
2022-12-15T22:15:27.736Z,23.00
2022-12-15T22:17:56.543Z,24.30
2022-12-15T22:20:25.987Z,24.83
2022-12-15T22:22:55.527Z,23.47
2022-12-15T22:25:25.411Z,23.60
2022-12-15T22:27:54.929Z,24.30
2022-12-15T22:30:25.248Z,24.40
2022-12-15T22:32:53.800Z,23.63
2022-12-15T22:35:24.248Z,22.87
2022-12-15T22:37:54.116Z,22.90
2022-12-15T22:40:25.732Z,23.60
2022-12-15T22:42:56.447Z,25.20
2022-12-15T22:45:25.176Z,22.93
2022-12-15T22:47:54.942Z,21.90
2022-12-15T22:50:26.030Z,22.97
2022-12-15T22:52:55.071Z,22.83
2022-12-15T22:55:25.807Z,23.53
2022-12-15T22:57:58.806Z,22.83
2022-12-15T23:00:27.368Z,22.07
2022-12-15T23:05:23.957Z,23.57
2022-12-15T23:07:52.270Z,22.63
2022-12-15T23:10:41.569Z,22.63
2022-12-15T23:13:09.479Z,22.77
2022-12-15T23:15:54.904Z,22.20
2022-12-15T23:18:25.660Z,22.77
2022-12-15T23:20:54.066Z,25.87
2022-12-15T23:23:22.609Z,26.93
2022-12-15T23:25:54.937Z,28.13
2022-12-15T23:28:23.319Z,26.33
2022-12-15T23:30:51.680Z,26.93
2022-12-15T23:33:19.950Z,28.50
2022-12-15T23:35:48.410Z,27.43
2022-12-15T23:38:16.725Z,27.97
2022-12-15T23:40:52.553Z,26.80
2022-12-15T23:43:23.338Z,28.10
2022-12-15T23:45:58.172Z,28.47
2022-12-15T23:48:29.622Z,33.57
2022-12-15T23:50:57.551Z,36.07
2022-12-15T23:53:25.452Z,34.47
2022-12-15T23:55:53.414Z,36.07
2022-12-15T23:58:22.954Z,39.00
